Time;durP1;ratioP1;P1;durP2;ratioP2;P2;SDS_P1;SDS_P2;PMS_P1;PMS_P2;Temp;Humidity;BMP_temperature;BMP_pressure;BME280_temperature;BME280_humidity;BME280_pressure;Samples;Min_cycle;Max_cycle;Signal;HPM_P1;HPM_P2
2022/10/31 00:00:52;;;;;;;;;;;15.50;99.90;;;;;;5076723;28;20394;-70
2022/10/31 00:03:27;;;;;;;;;;;15.50;99.90;;;;;;5074070;28;19944;-71
2022/10/31 00:05:56;;;;;;;;;;;15.50;99.90;;;;;;5051708;28;20322;-71
2022/10/31 00:08:22;;;;;;;;;;;15.50;99.90;;;;;;5064804;28;19944;-71
2022/10/31 00:10:50;;;;;;;;;;;15.50;99.90;;;;;;5090862;28;19915;-71
2022/10/31 00:13:22;;;;;;;;;;;15.40;99.90;;;;;;5081669;28;20368;-71
2022/10/31 00:15:48;;;;;;;;;;;15.50;99.90;;;;;;5103813;28;19908;-71
2022/10/31 00:18:13;;;;;;;;;;;15.50;99.90;;;;;;5103772;28;19912;-71
2022/10/31 00:20:39;;;;;;;;;;;15.50;99.90;;;;;;5067228;28;19909;-72
2022/10/31 00:23:06;;;;;;;;;;;15.40;99.90;;;;;;5066932;28;20007;-72
2022/10/31 00:25:36;;;;;;;;;;;15.40;99.90;;;;;;5072969;28;20346;-72
2022/10/31 00:28:03;;;;;;;;;;;15.30;99.90;;;;;;5055049;28;19909;-71
2022/10/31 00:30:29;;;;;;;;;;;15.30;99.90;;;;;;5072978;28;19943;-72
2022/10/31 00:32:55;;;;;;;;;;;15.30;99.90;;;;;;5073064;28;19913;-72
2022/10/31 00:35:20;;;;;;;;;;;15.30;99.90;;;;;;5072551;28;19913;-72
2022/10/31 00:37:46;;;;;;;;;;;15.30;99.90;;;;;;5048532;28;19913;-72
2022/10/31 00:40:12;;;;;;;;;;;15.30;99.90;;;;;;5066458;28;19912;-72
2022/10/31 00:42:38;;;;;;;;;;;15.30;99.90;;;;;;5082759;28;19920;-72
2022/10/31 00:45:04;;;;;;;;;;;15.20;99.90;;;;;;5084244;28;20396;-72
2022/10/31 00:47:30;;;;;;;;;;;15.20;99.90;;;;;;5082648;28;19912;-72
2022/10/31 00:49:59;;;;;;;;;;;15.30;99.90;;;;;;5056910;28;19908;-72
2022/10/31 00:52:25;;;;;;;;;;;15.30;99.90;;;;;;5074377;28;19919;-73
2022/10/31 00:54:50;;;;;;;;;;;15.20;99.90;;;;;;5072986;28;19909;-72
2022/10/31 00:57:22;;;;;;;;;;;15.10;99.90;;;;;;5074798;28;19950;-72
2022/10/31 00:59:48;;;;;;;;;;;15.00;99.90;;;;;;5074740;28;19909;-72
2022/10/31 01:02:14;;;;;;;;;;;15.00;99.90;;;;;;5056606;28;19936;-72
2022/10/31 01:04:40;;;;;;;;;;;15.10;99.90;;;;;;5074012;28;19912;-73
2022/10/31 01:07:05;;;;;;;;;;;15.10;99.90;;;;;;5070959;28;20003;-73
2022/10/31 01:09:37;;;;;;;;;;;15.00;99.90;;;;;;5075310;28;19955;-72
2022/10/31 01:12:03;;;;;;;;;;;14.90;99.90;;;;;;5075390;28;20428;-73
2022/10/31 01:14:28;;;;;;;;;;;15.00;99.90;;;;;;5073721;28;19909;-72
2022/10/31 01:16:54;;;;;;;;;;;14.90;99.90;;;;;;5036852;28;20003;-73
2022/10/31 01:19:20;;;;;;;;;;;14.90;99.90;;;;;;5037355;28;19995;-73
2022/10/31 01:21:46;;;;;;;;;;;14.90;99.90;;;;;;5055211;28;19909;-72
2022/10/31 01:24:11;;;;;;;;;;;14.90;99.90;;;;;;5055121;28;20421;-73
2022/10/31 01:26:37;;;;;;;;;;;14.80;99.90;;;;;;5055013;28;19908;-74
2022/10/31 01:29:04;;;;;;;;;;;14.80;99.90;;;;;;5055282;28;20371;-73
2022/10/31 01:31:32;;;;;;;;;;;14.90;99.90;;;;;;5071299;28;20002;-73
2022/10/31 01:33:58;;;;;;;;;;;14.90;99.90;;;;;;5074648;28;19912;-73
2022/10/31 01:36:26;;;;;;;;;;;14.90;99.90;;;;;;5074030;28;19921;-73
2022/10/31 01:38:52;;;;;;;;;;;14.90;99.90;;;;;;5074961;28;20023;-72
2022/10/31 01:41:19;;;;;;;;;;;14.80;99.90;;;;;;5072369;28;19931;-74
2022/10/31 01:43:59;;;;;;;;;;;14.70;99.90;;;;;;5053419;28;19914;-73
2022/10/31 01:46:33;;;;;;;;;;;14.70;99.90;;;;;;5069188;28;20398;-73
2022/10/31 01:48:59;;;;;;;;;;;14.80;99.90;;;;;;5071523;28;19913;-73
2022/10/31 01:51:28;;;;;;;;;;;14.90;99.90;;;;;;5067688;28;19923;-73
2022/10/31 01:53:55;;;;;;;;;;;14.90;99.90;;;;;;5050667;28;19925;-73
2022/10/31 01:56:21;;;;;;;;;;;14.90;99.90;;;;;;5068509;28;19916;-75
2022/10/31 01:58:47;;;;;;;;;;;14.90;99.90;;;;;;5068308;28;19913;-73
2022/10/31 02:01:14;;;;;;;;;;;14.90;99.90;;;;;;5071802;28;19917;-73
2022/10/31 02:03:40;;;;;;;;;;;14.90;99.90;;;;;;5072835;28;19915;-72
2022/10/31 02:06:08;;;;;;;;;;;15.00;99.90;;;;;;5067567;28;19912;-73
2022/10/31 02:08:34;;;;;;;;;;;14.90;99.90;;;;;;5050719;28;19959;-73
2022/10/31 02:11:01;;;;;;;;;;;14.90;99.90;;;;;;5067758;28;19913;-73
2022/10/31 02:13:28;;;;;;;;;;;14.80;99.90;;;;;;5067352;28;20267;-73
2022/10/31 02:15:55;;;;;;;;;;;14.90;99.90;;;;;;5051308;28;19920;-73
2022/10/31 02:18:22;;;;;;;;;;;15.00;99.90;;;;;;5068479;28;19979;-72
2022/10/31 02:20:59;;;;;;;;;;;15.00;99.90;;;;;;5068193;28;19923;-73
2022/10/31 02:23:37;;;;;;;;;;;15.00;99.90;;;;;;5074811;28;19916;-72
2022/10/31 02:26:21;;;;;;;;;;;15.00;99.90;;;;;;5048359;28;19919;-72
2022/10/31 02:29:06;;;;;;;;;;;14.90;99.90;;;;;;5065383;28;19920;-73
2022/10/31 02:31:42;;;;;;;;;;;14.90;99.90;;;;;;5067680;28;19921;-72
2022/10/31 02:34:25;;;;;;;;;;;14.90;99.90;;;;;;5067793;28;19923;-73
2022/10/31 02:36:54;;;;;;;;;;;14.90;99.90;;;;;;5064626;28;19919;-72
2022/10/31 02:39:44;;;;;;;;;;;14.80;99.90;;;;;;5068425;28;19930;-72
2022/10/31 02:42:16;;;;;;;;;;;14.70;99.90;;;;;;5067349;28;19924;-72
2022/10/31 02:45:06;;;;;;;;;;;14.70;99.90;;;;;;5047162;28;19913;-72
2022/10/31 02:47:52;;;;;;;;;;;14.70;99.90;;;;;;5067983;28;20043;-72
2022/10/31 02:50:26;;;;;;;;;;;14.70;99.90;;;;;;5065319;28;19920;-72
2022/10/31 02:52:52;;;;;;;;;;;14.80;99.90;;;;;;5049426;28;19916;-73
2022/10/31 02:55:24;;;;;;;;;;;14.90;99.90;;;;;;5068237;28;19921;-73
2022/10/31 02:57:51;;;;;;;;;;;14.80;99.90;;;;;;5053153;28;19913;-72
2022/10/31 03:00:17;;;;;;;;;;;14.80;99.90;;;;;;5066682;28;20171;-72
2022/10/31 03:02:55;;;;;;;;;;;14.80;99.90;;;;;;5068781;28;19916;-72
2022/10/31 03:05:37;;;;;;;;;;;14.80;99.90;;;;;;5067526;28;20251;-72
2022/10/31 03:08:09;;;;;;;;;;;14.70;99.90;;;;;;5054393;28;19913;-73
2022/10/31 03:10:37;;;;;;;;;;;14.80;99.90;;;;;;5068427;28;19952;-73
2022/10/31 03:13:09;;;;;;;;;;;14.80;99.90;;;;;;5050072;28;19938;-73
2022/10/31 03:15:37;;;;;;;;;;;14.80;99.90;;;;;;5051414;28;19928;-73
2022/10/31 03:18:06;;;;;;;;;;;14.80;99.90;;;;;;5071542;28;19960;-72
2022/10/31 03:20:37;;;;;;;;;;;14.70;99.90;;;;;;5068908;28;20030;-73
2022/10/31 03:23:05;;;;;;;;;;;14.70;99.90;;;;;;5069761;28;19920;-73
2022/10/31 03:25:31;;;;;;;;;;;14.70;99.90;;;;;;5063597;28;20046;-73
2022/10/31 03:27:58;;;;;;;;;;;14.70;99.90;;;;;;5051995;28;19916;-72
2022/10/31 03:30:24;;;;;;;;;;;14.70;99.90;;;;;;5070470;28;19928;-73
2022/10/31 03:32:54;;;;;;;;;;;14.80;99.90;;;;;;5068839;28;19916;-72
2022/10/31 03:35:23;;;;;;;;;;;14.90;99.90;;;;;;5067148;28;19924;-72
2022/10/31 03:37:49;;;;;;;;;;;14.90;99.90;;;;;;5049938;28;20007;-73
2022/10/31 03:40:16;;;;;;;;;;;14.90;99.90;;;;;;5067443;28;19913;-72
2022/10/31 03:42:44;;;;;;;;;;;14.90;99.90;;;;;;5067417;28;19916;-72
2022/10/31 03:45:16;;;;;;;;;;;14.80;99.90;;;;;;5067755;28;20026;-72
2022/10/31 03:47:43;;;;;;;;;;;14.70;99.90;;;;;;5066738;28;19912;-72
2022/10/31 03:50:09;;;;;;;;;;;14.70;99.90;;;;;;5083775;28;19922;-73
2022/10/31 03:52:38;;;;;;;;;;;14.70;99.90;;;;;;5079642;28;19966;-72
2022/10/31 03:55:07;;;;;;;;;;;14.80;99.90;;;;;;5059189;28;19924;-72
2022/10/31 03:57:33;;;;;;;;;;;14.80;99.90;;;;;;5066876;28;19962;-72
2022/10/31 04:00:08;;;;;;;;;;;14.80;99.90;;;;;;5069854;28;19912;-72
2022/10/31 04:02:38;;;;;;;;;;;14.70;99.90;;;;;;5068197;28;19927;-73
2022/10/31 04:05:04;;;;;;;;;;;14.70;99.90;;;;;;5069952;28;19920;-72
2022/10/31 04:07:32;;;;;;;;;;;14.60;99.90;;;;;;5052249;28;19920;-73
2022/10/31 04:10:00;;;;;;;;;;;14.50;99.90;;;;;;5069194;28;19916;-73
2022/10/31 04:12:26;;;;;;;;;;;14.60;99.90;;;;;;5070255;28;20006;-72
2022/10/31 04:14:52;;;;;;;;;;;14.60;99.90;;;;;;5065253;28;20015;-72
2022/10/31 04:17:20;;;;;;;;;;;14.60;99.90;;;;;;5068278;28;19944;-73
2022/10/31 04:19:46;;;;;;;;;;;14.60;99.90;;;;;;5067793;28;19920;-72
2022/10/31 04:22:11;;;;;;;;;;;14.70;99.90;;;;;;5069018;28;20030;-73
2022/10/31 04:24:39;;;;;;;;;;;14.60;99.90;;;;;;5068500;28;19913;-72
2022/10/31 04:27:04;;;;;;;;;;;14.40;99.90;;;;;;5069834;28;19956;-73
2022/10/31 04:29:30;;;;;;;;;;;14.30;99.90;;;;;;5053143;28;19958;-73
2022/10/31 04:31:56;;;;;;;;;;;14.30;99.90;;;;;;5075945;28;19916;-74
2022/10/31 04:34:22;;;;;;;;;;;14.30;99.90;;;;;;5089964;28;20112;-72
2022/10/31 04:36:47;;;;;;;;;;;14.30;99.90;;;;;;5076937;28;19912;-72
2022/10/31 04:39:13;;;;;;;;;;;14.40;99.90;;;;;;5076605;28;20176;-72
2022/10/31 04:41:39;;;;;;;;;;;14.50;99.90;;;;;;5077618;28;19928;-72
2022/10/31 04:44:04;;;;;;;;;;;14.50;99.90;;;;;;5066748;28;20891;-72
2022/10/31 04:46:30;;;;;;;;;;;14.60;99.90;;;;;;5069805;28;19923;-72
2022/10/31 04:48:56;;;;;;;;;;;14.50;99.90;;;;;;5071075;28;20017;-72
2022/10/31 04:51:22;;;;;;;;;;;14.60;99.90;;;;;;5052827;28;19920;-73
2022/10/31 04:53:47;;;;;;;;;;;14.60;99.90;;;;;;5069044;28;20054;-72
2022/10/31 04:56:13;;;;;;;;;;;14.60;99.90;;;;;;5069112;28;21742;-72
2022/10/31 04:58:39;;;;;;;;;;;14.70;99.90;;;;;;5066615;28;19940;-73
2022/10/31 05:01:04;;;;;;;;;;;14.80;99.90;;;;;;5071856;28;19917;-72
2022/10/31 05:03:30;;;;;;;;;;;14.80;99.90;;;;;;5072022;28;19916;-72
2022/10/31 05:05:56;;;;;;;;;;;14.80;99.90;;;;;;5068657;28;19916;-72
2022/10/31 05:08:22;;;;;;;;;;;14.70;99.90;;;;;;5050502;28;20290;-71
2022/10/31 05:10:47;;;;;;;;;;;14.60;99.90;;;;;;5067159;28;20021;-72
2022/10/31 05:13:14;;;;;;;;;;;14.60;99.90;;;;;;5068264;28;19916;-72
2022/10/31 05:15:40;;;;;;;;;;;14.60;99.90;;;;;;5066806;28;19944;-72
2022/10/31 05:18:05;;;;;;;;;;;14.50;99.90;;;;;;5066244;28;19917;-72
2022/10/31 05:20:31;;;;;;;;;;;14.40;99.90;;;;;;5067244;28;19949;-72
2022/10/31 05:22:57;;;;;;;;;;;14.40;99.90;;;;;;5063735;28;19923;-72
2022/10/31 05:25:24;;;;;;;;;;;14.30;99.90;;;;;;5066277;28;19923;-72
2022/10/31 05:27:50;;;;;;;;;;;14.50;99.90;;;;;;5066511;28;19912;-72
2022/10/31 05:30:18;;;;;;;;;;;14.50;99.90;;;;;;5068473;28;19920;-72
2022/10/31 05:32:45;;;;;;;;;;;14.60;99.90;;;;;;5068232;28;19968;-71
2022/10/31 05:35:18;;;;;;;;;;;14.70;99.90;;;;;;5067408;28;19920;-71
2022/10/31 05:37:44;;;;;;;;;;;14.70;99.90;;;;;;5046128;28;19916;-72
2022/10/31 05:40:11;;;;;;;;;;;14.50;99.90;;;;;;5068879;28;19924;-72
2022/10/31 05:42:40;;;;;;;;;;;14.50;99.90;;;;;;5068324;28;19916;-72
2022/10/31 05:45:07;;;;;;;;;;;14.40;99.90;;;;;;5071517;28;19913;-73
2022/10/31 05:47:32;;;;;;;;;;;14.40;99.90;;;;;;5081320;28;20515;-73
2022/10/31 05:49:58;;;;;;;;;;;14.40;99.90;;;;;;5080819;28;19959;-73
2022/10/31 05:52:24;;;;;;;;;;;14.30;99.90;;;;;;5072633;28;20011;-73
2022/10/31 05:54:49;;;;;;;;;;;14.30;99.90;;;;;;5084049;28;19919;-72
2022/10/31 05:57:15;;;;;;;;;;;14.30;99.90;;;;;;5066942;28;19912;-73
2022/10/31 05:59:41;;;;;;;;;;;14.30;99.90;;;;;;5054617;28;19927;-72
2022/10/31 06:02:06;;;;;;;;;;;14.30;99.90;;;;;;5052182;28;20014;-75
2022/10/31 06:04:32;;;;;;;;;;;14.30;99.90;;;;;;5075687;28;19935;-72
2022/10/31 06:06:58;;;;;;;;;;;14.20;99.90;;;;;;5064183;28;19912;-72
2022/10/31 06:09:24;;;;;;;;;;;14.30;99.90;;;;;;5082520;28;19961;-71
2022/10/31 06:11:49;;;;;;;;;;;14.30;99.90;;;;;;5090875;28;20054;-71
2022/10/31 06:14:15;;;;;;;;;;;14.30;99.90;;;;;;5054722;28;20290;-71
2022/10/31 06:16:41;;;;;;;;;;;14.40;99.90;;;;;;5059731;28;19916;-71
2022/10/31 06:19:06;;;;;;;;;;;14.50;99.90;;;;;;5072433;28;19915;-72
2022/10/31 06:21:32;;;;;;;;;;;14.40;99.90;;;;;;5071043;28;20006;-72
2022/10/31 06:23:58;;;;;;;;;;;14.50;99.90;;;;;;5085035;28;19912;-72
2022/10/31 06:26:24;;;;;;;;;;;14.50;99.90;;;;;;5077043;28;19919;-72
2022/10/31 06:28:49;;;;;;;;;;;14.50;99.90;;;;;;5076527;28;19913;-71
2022/10/31 06:31:15;;;;;;;;;;;14.40;99.90;;;;;;5081073;28;20005;-72
2022/10/31 06:33:41;;;;;;;;;;;14.50;99.90;;;;;;5061864;28;20350;-72
2022/10/31 06:36:07;;;;;;;;;;;14.50;99.90;;;;;;5063009;28;20556;-72
2022/10/31 06:38:33;;;;;;;;;;;14.60;99.90;;;;;;5072018;28;19995;-71
2022/10/31 06:41:02;;;;;;;;;;;14.60;99.90;;;;;;5086556;28;19954;-74
2022/10/31 06:43:27;;;;;;;;;;;14.70;99.90;;;;;;5080726;28;19966;-71
2022/10/31 06:45:53;;;;;;;;;;;14.90;99.90;;;;;;5079717;28;19916;-71
2022/10/31 06:48:19;;;;;;;;;;;14.90;99.90;;;;;;5075016;28;19913;-71
2022/10/31 06:50:45;;;;;;;;;;;15.00;99.90;;;;;;5074215;28;19913;-71
2022/10/31 06:53:10;;;;;;;;;;;15.10;99.90;;;;;;5074343;28;21028;-71
2022/10/31 06:55:36;;;;;;;;;;;15.20;99.90;;;;;;5073916;28;20003;-72
2022/10/31 06:58:02;;;;;;;;;;;15.30;99.90;;;;;;5068009;28;20332;-71
2022/10/31 07:00:28;;;;;;;;;;;15.40;99.90;;;;;;5073676;28;19913;-71
2022/10/31 07:02:57;;;;;;;;;;;15.40;99.90;;;;;;5072753;28;19963;-71
2022/10/31 07:05:23;;;;;;;;;;;15.50;99.90;;;;;;5064757;28;19913;-72
2022/10/31 07:07:53;;;;;;;;;;;15.60;99.90;;;;;;5068212;28;19912;-70
2022/10/31 07:10:19;;;;;;;;;;;15.60;99.90;;;;;;5072275;28;19958;-71
2022/10/31 07:12:45;;;;;;;;;;;15.60;99.90;;;;;;5079022;28;19920;-72
2022/10/31 07:15:10;;;;;;;;;;;15.60;99.90;;;;;;5082265;28;19912;-72
2022/10/31 07:17:37;;;;;;;;;;;15.70;99.90;;;;;;5071900;28;19912;-73
2022/10/31 07:20:03;;;;;;;;;;;15.70;99.90;;;;;;5064867;28;20482;-71
2022/10/31 07:22:32;;;;;;;;;;;15.80;99.90;;;;;;5076369;28;19939;-72
2022/10/31 07:24:58;;;;;;;;;;;15.90;99.90;;;;;;5057885;28;19954;-72
2022/10/31 07:27:24;;;;;;;;;;;16.00;99.90;;;;;;5074170;28;19917;-72
2022/10/31 07:29:49;;;;;;;;;;;16.10;99.90;;;;;;5079863;28;20290;-72
2022/10/31 07:32:15;;;;;;;;;;;16.20;99.90;;;;;;5075243;28;19920;-71
2022/10/31 07:34:41;;;;;;;;;;;16.40;99.90;;;;;;5075542;28;19995;-71
2022/10/31 07:37:06;;;;;;;;;;;16.50;99.90;;;;;;5076618;28;19947;-72
2022/10/31 07:39:32;;;;;;;;;;;16.70;99.90;;;;;;5077768;28;19912;-72
2022/10/31 07:41:58;;;;;;;;;;;16.80;99.90;;;;;;5075525;28;19912;-73
2022/10/31 07:44:24;;;;;;;;;;;17.00;99.90;;;;;;5070295;28;19924;-71
2022/10/31 07:46:49;;;;;;;;;;;17.10;99.90;;;;;;5074450;28;19927;-73
2022/10/31 07:49:15;;;;;;;;;;;17.20;99.90;;;;;;5090717;28;19962;-71
2022/10/31 07:51:41;;;;;;;;;;;17.20;99.90;;;;;;5071946;28;19913;-73
2022/10/31 07:54:06;;;;;;;;;;;17.20;99.90;;;;;;5076279;28;19916;-74
2022/10/31 07:56:32;;;;;;;;;;;17.20;99.90;;;;;;5080742;28;19923;-72
2022/10/31 07:58:58;;;;;;;;;;;17.30;99.90;;;;;;5077304;28;19912;-71
2022/10/31 08:02:05;;;;;;;;;;;17.30;99.90;;;;;;5082853;28;19924;-72
2022/10/31 08:05:11;;;;;;;;;;;17.40;99.90;;;;;;4979743;28;20007;-71
2022/10/31 08:07:42;;;;;;;;;;;17.60;99.90;;;;;;5055168;28;20585;-71
2022/10/31 08:10:17;;;;;;;;;;;17.70;99.90;;;;;;5062064;28;19919;-71
2022/10/31 08:12:43;;;;;;;;;;;17.90;99.90;;;;;;5081944;28;19916;-74
2022/10/31 08:15:09;;;;;;;;;;;18.00;99.90;;;;;;5079833;28;19919;-70
2022/10/31 08:17:35;;;;;;;;;;;18.00;99.90;;;;;;5061904;28;19912;-71
2022/10/31 08:20:01;;;;;;;;;;;18.00;99.90;;;;;;5078517;28;19971;-74
2022/10/31 08:22:27;;;;;;;;;;;18.10;99.90;;;;;;5068097;28;20382;-72
2022/10/31 08:24:52;;;;;;;;;;;18.10;99.90;;;;;;5078832;28;19917;-72
2022/10/31 08:27:18;;;;;;;;;;;18.20;99.90;;;;;;5060154;28;20077;-72
2022/10/31 08:29:44;;;;;;;;;;;18.30;99.90;;;;;;5066893;28;19917;-71
2022/10/31 08:32:10;;;;;;;;;;;18.40;99.90;;;;;;5076581;28;19918;-72
2022/10/31 08:34:35;;;;;;;;;;;18.40;99.90;;;;;;5087627;28;19942;-73
2022/10/31 08:37:01;;;;;;;;;;;18.40;99.90;;;;;;5081044;28;19984;-72
2022/10/31 08:39:27;;;;;;;;;;;18.50;99.90;;;;;;5082705;28;19916;-72
2022/10/31 08:41:52;;;;;;;;;;;18.60;99.90;;;;;;5087056;28;19912;-72
2022/10/31 08:44:18;;;;;;;;;;;18.70;99.90;;;;;;5086525;28;19958;-72
2022/10/31 08:46:44;;;;;;;;;;;18.70;99.90;;;;;;5085876;28;19959;-72
2022/10/31 08:49:09;;;;;;;;;;;18.70;99.90;;;;;;5082227;28;19918;-72
2022/10/31 08:51:35;;;;;;;;;;;18.80;99.90;;;;;;5079654;28;19912;-72
2022/10/31 08:54:01;;;;;;;;;;;18.90;99.90;;;;;;5081241;28;19960;-72
2022/10/31 08:56:29;;;;;;;;;;;18.90;99.90;;;;;;5070005;28;19934;-72
2022/10/31 08:58:55;;;;;;;;;;;18.90;99.90;;;;;;5083033;28;19916;-72
2022/10/31 09:01:20;;;;;;;;;;;19.00;99.90;;;;;;5076856;28;19969;-72
2022/10/31 09:03:48;;;;;;;;;;;19.00;99.90;;;;;;5079816;28;19939;-66
2022/10/31 09:06:13;;;;;;;;;;;19.10;99.90;;;;;;5067562;28;20006;-66
2022/10/31 09:08:39;;;;;;;;;;;19.20;99.90;;;;;;5074055;28;19955;-65
2022/10/31 09:11:06;;;;;;;;;;;19.20;99.90;;;;;;5072218;28;19989;-64
2022/10/31 09:13:32;;;;;;;;;;;19.30;99.90;;;;;;5074058;28;19913;-62
2022/10/31 09:15:58;;;;;;;;;;;19.30;99.90;;;;;;5084772;28;20018;-64
2022/10/31 09:18:24;;;;;;;;;;;19.20;99.90;;;;;;5095351;28;19969;-61
2022/10/31 09:20:50;;;;;;;;;;;19.30;99.90;;;;;;5058521;28;19990;-71
2022/10/31 09:23:17;;;;;;;;;;;19.30;99.90;;;;;;5077775;28;19971;-71
2022/10/31 09:25:44;;;;;;;;;;;19.40;99.90;;;;;;5073203;28;19908;-71
2022/10/31 09:28:11;;;;;;;;;;;19.50;99.90;;;;;;5073404;28;19924;-71
2022/10/31 09:30:37;;;;;;;;;;;19.60;99.90;;;;;;5067333;28;20559;-72
2022/10/31 09:33:04;;;;;;;;;;;19.60;99.90;;;;;;5075156;28;19917;-73
2022/10/31 09:35:30;;;;;;;;;;;19.70;99.90;;;;;;5078665;28;19912;-72
2022/10/31 09:37:56;;;;;;;;;;;19.70;99.90;;;;;;5072078;28;20350;-72
2022/10/31 09:40:25;;;;;;;;;;;19.80;99.90;;;;;;5073098;28;19954;-73
2022/10/31 09:42:55;;;;;;;;;;;19.80;99.90;;;;;;5073362;28;20362;-72
2022/10/31 09:45:26;;;;;;;;;;;19.80;99.90;;;;;;5055116;28;19954;-72
2022/10/31 09:48:06;;;;;;;;;;;19.90;99.90;;;;;;5071795;28;20531;-72
2022/10/31 09:50:54;;;;;;;;;;;19.90;99.90;;;;;;5073119;28;20314;-72
2022/10/31 09:53:23;;;;;;;;;;;19.90;99.90;;;;;;5073493;28;19965;-73
2022/10/31 09:55:53;;;;;;;;;;;19.90;99.90;;;;;;5073572;28;19912;-73
2022/10/31 09:58:20;;;;;;;;;;;20.00;99.90;;;;;;5087448;28;20381;-72
2022/10/31 10:00:47;;;;;;;;;;;20.10;99.90;;;;;;5079854;28;19920;-72
2022/10/31 10:03:37;;;;;;;;;;;20.10;99.90;;;;;;5069601;28;20033;-71
2022/10/31 10:06:15;;;;;;;;;;;20.20;99.90;;;;;;5092423;28;20320;-72
2022/10/31 10:08:50;;;;;;;;;;;20.20;99.90;;;;;;5074480;28;19909;-71
2022/10/31 10:11:44;;;;;;;;;;;;;;;;;;;;;
2022/10/31 10:14:11;;;;;;;;;;;20.10;99.90;;;;;;5067657;28;19919;-68
2022/10/31 10:16:51;;;;;;;;;;;20.10;99.90;;;;;;5075423;28;20003;-69
2022/10/31 10:19:30;;;;;;;;;;;20.20;99.90;;;;;;5078738;28;19939;-68
2022/10/31 10:22:04;;;;;;;;;;;20.10;99.90;;;;;;5083513;28;20374;-69
2022/10/31 10:24:45;;;;;;;;;;;20.10;99.90;;;;;;5078395;28;20334;-69
2022/10/31 10:27:30;;;;;;;;;;;20.10;99.90;;;;;;5077046;28;19913;-72
2022/10/31 10:33:15;;;;;;;;;;;20.10;99.90;;;;;;5034973;28;19924;-72
2022/10/31 10:35:50;;;;;;;;;;;20.20;99.90;;;;;;5069015;28;20332;-71
2022/10/31 10:44:15;;;;;;;;;;;20.40;99.90;;;;;;5092908;28;19923;-72
2022/10/31 10:49:44;;;;;;;;;;;20.50;99.90;;;;;;5076324;28;19954;-71
2022/10/31 10:52:21;;;;;;;;;;;20.60;99.90;;;;;;5087993;28;19913;-76
2022/10/31 10:55:05;;;;;;;;;;;20.70;99.90;;;;;;5064698;28;19962;-71
2022/10/31 10:58:00;;;;;;;;;;;;;;;;;;;;;
2022/10/31 11:00:32;;;;;;;;;;;20.80;99.90;;;;;;5030331;28;19999;-70
2022/10/31 11:02:58;;;;;;;;;;;20.80;99.90;;;;;;5082840;28;19932;-70
2022/10/31 11:05:28;;;;;;;;;;;20.80;99.90;;;;;;5074873;28;20012;-70
2022/10/31 11:07:54;;;;;;;;;;;20.80;99.90;;;;;;5057317;28;19913;-70
2022/10/31 11:10:19;;;;;;;;;;;20.80;99.90;;;;;;5083436;28;20492;-69
2022/10/31 11:12:58;;;;;;;;;;;20.80;99.90;;;;;;5076487;28;19962;-70
2022/10/31 11:15:39;;;;;;;;;;;20.80;99.90;;;;;;5083774;28;19913;-70
2022/10/31 11:18:17;;;;;;;;;;;20.80;99.90;;;;;;5092546;28;20366;-69
2022/10/31 11:20:50;;;;;;;;;;;20.80;99.90;;;;;;5095559;28;19908;-70
2022/10/31 11:23:19;;;;;;;;;;;20.80;99.90;;;;;;5096470;28;19912;-70
2022/10/31 11:25:50;;;;;;;;;;;20.80;99.90;;;;;;5096624;28;19931;-69
2022/10/31 11:28:16;;;;;;;;;;;20.80;99.90;;;;;;5088469;28;20283;-70
2022/10/31 11:30:49;;;;;;;;;;;20.80;99.90;;;;;;5094355;28;19919;-70
2022/10/31 11:33:17;;;;;;;;;;;20.80;99.90;;;;;;5096959;28;19955;-70
2022/10/31 11:35:43;;;;;;;;;;;20.80;99.90;;;;;;5095366;28;19943;-70
2022/10/31 11:38:14;;;;;;;;;;;20.90;99.90;;;;;;5096862;28;19912;-70
2022/10/31 11:40:50;;;;;;;;;;;20.80;99.90;;;;;;5086838;28;20374;-69
2022/10/31 11:43:17;;;;;;;;;;;20.80;99.90;;;;;;5068847;28;19935;-69
2022/10/31 11:45:43;;;;;;;;;;;20.80;99.90;;;;;;5084343;28;19909;-67
2022/10/31 11:48:23;;;;;;;;;;;20.90;99.90;;;;;;5074953;28;19981;-69
2022/10/31 11:50:55;;;;;;;;;;;21.00;99.90;;;;;;5057973;28;20366;-68
2022/10/31 11:53:28;;;;;;;;;;;21.00;99.90;;;;;;5073808;28;19912;-70
2022/10/31 11:56:13;;;;;;;;;;;21.00;99.90;;;;;;5060285;28;19916;-69
2022/10/31 11:58:39;;;;;;;;;;;21.00;99.90;;;;;;5068551;28;19908;-70
2022/10/31 12:01:05;;;;;;;;;;;21.00;99.90;;;;;;5074250;28;19962;-69
2022/10/31 12:03:43;;;;;;;;;;;21.00;99.90;;;;;;5069904;28;19919;-69
2022/10/31 12:09:38;;;;;;;;;;;21.10;99.90;;;;;;4975520;28;19922;-70
2022/10/31 12:12:03;;;;;;;;;;;21.00;99.90;;;;;;4972752;28;19955;-70
2022/10/31 12:14:51;;;;;;;;;;;20.90;99.90;;;;;;4975690;28;19918;-69
2022/10/31 12:17:29;;;;;;;;;;;20.80;99.90;;;;;;5012630;28;19999;-69
2022/10/31 12:20:01;;;;;;;;;;;20.80;99.90;;;;;;5074707;28;19939;-69
2022/10/31 12:22:39;;;;;;;;;;;20.80;99.90;;;;;;5060480;28;19923;-69
2022/10/31 12:25:17;;;;;;;;;;;20.80;99.90;;;;;;5070084;28;20377;-70
2022/10/31 12:27:51;;;;;;;;;;;20.80;99.90;;;;;;5082307;28;19912;-70
2022/10/31 12:30:21;;;;;;;;;;;20.80;99.90;;;;;;5086619;28;20409;-72
2022/10/31 12:32:55;;;;;;;;;;;20.70;99.90;;;;;;5081689;28;21799;-71
2022/10/31 12:35:27;;;;;;;;;;;20.80;99.90;;;;;;5036490;28;19948;-72
2022/10/31 12:38:04;;;;;;;;;;;20.80;99.90;;;;;;5054634;28;19924;-72
2022/10/31 12:41:09;;;;;;;;;;;20.80;99.90;;;;;;5085376;28;19912;-71
2022/10/31 12:43:42;;;;;;;;;;;20.90;99.90;;;;;;5003010;28;19961;-72
2022/10/31 12:46:13;;;;;;;;;;;20.90;99.90;;;;;;4998589;28;19924;-70
2022/10/31 12:48:57;;;;;;;;;;;21.00;99.90;;;;;;5033598;28;19912;-72
2022/10/31 12:51:26;;;;;;;;;;;21.00;99.90;;;;;;5075648;28;19924;-72
2022/10/31 12:54:04;;;;;;;;;;;21.00;99.90;;;;;;5082244;28;19916;-72
2022/10/31 12:56:35;;;;;;;;;;;21.10;99.90;;;;;;5076898;28;20002;-71
2022/10/31 12:59:04;;;;;;;;;;;21.20;99.90;;;;;;5094903;28;19977;-72
2022/10/31 13:01:34;;;;;;;;;;;21.20;99.90;;;;;;5063742;28;19923;-73
2022/10/31 13:04:10;;;;;;;;;;;21.30;99.90;;;;;;5083988;28;19915;-71
2022/10/31 13:06:37;;;;;;;;;;;21.30;99.90;;;;;;5094605;28;20003;-71
2022/10/31 13:09:08;;;;;;;;;;;21.30;99.90;;;;;;5076109;28;19908;-71
2022/10/31 13:11:37;;;;;;;;;;;21.30;99.90;;;;;;5085335;28;19922;-71
2022/10/31 13:14:13;;;;;;;;;;;21.20;99.90;;;;;;5082265;28;19970;-71
2022/10/31 13:16:40;;;;;;;;;;;21.20;99.90;;;;;;5084362;28;19919;-71
2022/10/31 13:19:24;;;;;;;;;;;21.20;99.90;;;;;;5070650;28;20306;-71
2022/10/31 13:21:53;;;;;;;;;;;21.20;99.90;;;;;;5074442;28;20286;-72
2022/10/31 13:24:28;;;;;;;;;;;21.20;99.90;;;;;;5072484;28;19908;-72
2022/10/31 13:26:54;;;;;;;;;;;21.10;99.90;;;;;;5066055;28;19912;-70
2022/10/31 13:29:23;;;;;;;;;;;21.10;99.90;;;;;;5080846;28;19908;-70
2022/10/31 13:31:49;;;;;;;;;;;21.10;99.90;;;;;;5086164;28;19961;-70
2022/10/31 13:34:22;;;;;;;;;;;21.10;99.90;;;;;;5094050;28;19968;-70
2022/10/31 13:36:58;;;;;;;;;;;21.20;99.90;;;;;;5094638;28;19998;-69
2022/10/31 13:39:44;;;;;;;;;;;21.20;99.90;;;;;;5094459;28;19919;-70
2022/10/31 13:42:23;;;;;;;;;;;21.30;99.90;;;;;;5072111;28;19941;-70
2022/10/31 13:44:48;;;;;;;;;;;21.40;99.90;;;;;;5070216;28;19919;-70
2022/10/31 13:47:28;;;;;;;;;;;21.50;99.90;;;;;;5067233;28;20397;-70
2022/10/31 13:50:06;;;;;;;;;;;21.50;99.90;;;;;;5073019;28;19908;-70
2022/10/31 13:52:32;;;;;;;;;;;21.40;99.90;;;;;;5073863;28;19909;-70
2022/10/31 13:54:58;;;;;;;;;;;21.50;99.90;;;;;;5093168;28;19908;-70
2022/10/31 13:57:23;;;;;;;;;;;21.40;99.90;;;;;;5076914;28;20125;-70
2022/10/31 13:59:54;;;;;;;;;;;21.50;99.90;;;;;;5093815;28;19915;-71
2022/10/31 14:02:26;;;;;;;;;;;21.50;99.90;;;;;;5086437;28;19920;-70
2022/10/31 14:04:53;;;;;;;;;;;21.50;99.90;;;;;;5066312;28;20017;-70
2022/10/31 14:07:23;;;;;;;;;;;21.30;99.90;;;;;;5093675;28;19909;-69
2022/10/31 14:09:56;;;;;;;;;;;21.30;99.90;;;;;;5094104;28;19951;-70
2022/10/31 14:12:25;;;;;;;;;;;21.30;99.90;;;;;;5075769;28;20412;-70
2022/10/31 14:14:55;;;;;;;;;;;21.30;99.90;;;;;;5090425;28;19989;-70
2022/10/31 14:17:26;;;;;;;;;;;21.30;99.90;;;;;;5069061;28;20439;-69
2022/10/31 14:20:10;;;;;;;;;;;21.40;99.90;;;;;;5075793;28;20079;-70
2022/10/31 14:22:36;;;;;;;;;;;21.30;99.90;;;;;;5075705;28;19914;-70
2022/10/31 14:25:02;;;;;;;;;;;21.20;99.90;;;;;;5093858;28;20033;-70
2022/10/31 14:27:28;;;;;;;;;;;21.20;99.90;;;;;;5091821;28;19912;-70
2022/10/31 14:29:53;;;;;;;;;;;21.20;99.90;;;;;;5070699;28;19908;-69
2022/10/31 14:32:23;;;;;;;;;;;21.10;99.90;;;;;;5070625;28;19920;-70
2022/10/31 14:34:49;;;;;;;;;;;21.10;99.90;;;;;;5091509;28;20015;-70
2022/10/31 14:37:18;;;;;;;;;;;21.00;99.90;;;;;;5093630;28;20405;-70
2022/10/31 14:39:46;;;;;;;;;;;21.00;99.90;;;;;;5087249;28;19912;-71
2022/10/31 14:42:12;;;;;;;;;;;21.00;99.90;;;;;;5075588;28;19977;-70
2022/10/31 14:45:04;;;;;;;;;;;21.00;99.90;;;;;;5093895;28;20378;-71
2022/10/31 14:47:48;;;;;;;;;;;20.90;99.90;;;;;;5035436;28;19908;-70